createdAt,value
2022-09-21T00:00:26.209Z,48.54
2022-09-21T00:01:26.777Z,48.32
2022-09-21T00:02:26.246Z,48.36
2022-09-21T00:03:26.196Z,49.22
2022-09-21T00:04:26.186Z,48.15
2022-09-21T00:05:26.212Z,50.92
2022-09-21T00:06:26.176Z,55.69
2022-09-21T00:07:26.180Z,48.70
2022-09-21T00:08:26.154Z,48.36
2022-09-21T00:09:26.157Z,56.18
2022-09-21T00:10:26.148Z,54.86
2022-09-21T00:11:26.138Z,51.37
2022-09-21T00:12:26.149Z,48.82
2022-09-21T00:13:27.492Z,49.47
2022-09-21T00:14:26.123Z,47.19
2022-09-21T00:15:26.117Z,49.32
2022-09-21T00:16:26.164Z,48.78
2022-09-21T00:17:26.100Z,52.17
2022-09-21T00:18:26.115Z,54.43
2022-09-21T00:19:26.216Z,49.31
2022-09-21T00:20:26.094Z,49.32
2022-09-21T00:21:26.104Z,50.70
2022-09-21T00:22:26.169Z,50.80
2022-09-21T00:23:26.086Z,51.97
2022-09-21T00:24:26.050Z,49.97
2022-09-21T00:25:26.132Z,50.04
2022-09-21T00:26:26.047Z,51.04
2022-09-21T00:27:26.039Z,50.70
2022-09-21T00:28:26.030Z,53.13
2022-09-21T00:29:26.033Z,50.91
2022-09-21T00:30:26.025Z,50.04
2022-09-21T00:31:26.107Z,45.83
2022-09-21T00:32:26.005Z,49.02
2022-09-21T00:33:25.997Z,49.15
2022-09-21T00:34:26.161Z,53.26
2022-09-21T00:35:25.986Z,54.92
2022-09-21T00:36:25.973Z,51.31
2022-09-21T00:37:26.022Z,50.51
2022-09-21T00:38:25.963Z,48.35
2022-09-21T00:39:25.950Z,49.48
2022-09-21T00:40:25.996Z,47.85
2022-09-21T00:41:25.948Z,48.44
2022-09-21T00:42:25.930Z,50.86
2022-09-21T00:43:25.981Z,54.41
2022-09-21T00:44:25.933Z,52.08
2022-09-21T00:45:26.007Z,50.55
2022-09-21T00:46:26.484Z,51.92
2022-09-21T00:47:25.905Z,52.43
2022-09-21T00:48:25.891Z,51.82
2022-09-21T00:49:25.943Z,51.25
2022-09-21T00:50:25.888Z,52.27
2022-09-21T00:51:25.873Z,54.79
2022-09-21T00:52:25.867Z,53.69
2022-09-21T00:53:25.885Z,51.85
2022-09-21T00:54:25.847Z,54.68
2022-09-21T00:55:25.915Z,55.00
2022-09-21T00:56:25.843Z,52.60
2022-09-21T00:57:25.839Z,49.71
2022-09-21T00:58:25.835Z,49.92
2022-09-21T00:59:30.060Z,49.02
2022-09-21T01:00:25.828Z,47.39
2022-09-21T01:01:25.851Z,51.35
2022-09-21T01:02:25.871Z,50.95
2022-09-21T01:03:25.794Z,48.45
2022-09-21T01:04:25.782Z,52.22
2022-09-21T01:05:25.775Z,55.10
2022-09-21T01:06:26.279Z,54.89
2022-09-21T01:07:25.771Z,51.73
2022-09-21T01:08:25.760Z,52.81
2022-09-21T01:09:25.784Z,53.80
2022-09-21T01:10:25.742Z,54.10
2022-09-21T01:11:25.746Z,52.12
2022-09-21T01:12:25.741Z,49.26
2022-09-21T01:13:25.719Z,50.43
2022-09-21T01:14:25.722Z,53.56
2022-09-21T01:15:25.724Z,53.00
2022-09-21T01:16:25.840Z,53.31
2022-09-21T01:17:25.715Z,50.15
2022-09-21T01:18:25.697Z,53.46
2022-09-21T01:19:26.126Z,54.13
2022-09-21T01:20:25.674Z,51.61
2022-09-21T01:21:25.696Z,57.52
2022-09-21T01:22:25.685Z,53.39
2022-09-21T01:23:25.666Z,51.65
2022-09-21T01:24:25.651Z,52.11
2022-09-21T01:25:25.866Z,51.73
2022-09-21T01:26:25.646Z,51.26
2022-09-21T01:27:25.638Z,52.00
2022-09-21T01:28:25.674Z,52.82
2022-09-21T01:29:25.621Z,51.53
2022-09-21T01:30:25.640Z,49.93
2022-09-21T01:31:25.648Z,50.49
2022-09-21T01:32:25.617Z,49.35
2022-09-21T01:33:25.595Z,56.70
2022-09-21T01:34:25.654Z,53.49
2022-09-21T01:35:25.585Z,50.00
2022-09-21T01:36:25.593Z,49.56
2022-09-21T01:37:25.575Z,50.44
2022-09-21T01:38:25.577Z,52.23
2022-09-21T01:39:25.548Z,49.18
2022-09-21T01:40:26.102Z,47.68
2022-09-21T01:41:25.570Z,51.59
2022-09-21T01:42:25.542Z,51.12
2022-09-21T01:43:32.919Z,51.66
2022-09-21T01:44:25.523Z,52.10
2022-09-21T01:45:25.560Z,49.67
2022-09-21T01:46:25.499Z,49.44
2022-09-21T01:47:25.492Z,51.37
2022-09-21T01:48:25.500Z,51.59
2022-09-21T01:49:25.501Z,51.48
2022-09-21T01:50:25.490Z,50.35
2022-09-21T01:51:25.488Z,49.84
2022-09-21T01:52:25.466Z,53.40
2022-09-21T01:53:25.462Z,55.05
2022-09-21T01:54:25.453Z,60.77
2022-09-21T01:55:25.454Z,55.91
2022-09-21T01:56:25.462Z,54.74
2022-09-21T01:57:25.501Z,56.41
2022-09-21T01:58:25.629Z,54.29
2022-09-21T01:59:25.443Z,53.18
2022-09-21T02:00:25.406Z,53.36
2022-09-21T02:01:25.427Z,54.92
2022-09-21T02:02:25.412Z,54.69
2022-09-21T02:03:25.422Z,52.37
2022-09-21T02:04:25.395Z,53.10
2022-09-21T02:05:26.011Z,52.40
2022-09-21T02:06:25.430Z,52.86
2022-09-21T02:07:25.420Z,52.48
2022-09-21T02:08:25.357Z,52.13
2022-09-21T02:09:26.162Z,52.26
2022-09-21T02:10:25.343Z,50.52
2022-09-21T02:11:25.333Z,51.94
2022-09-21T02:12:25.345Z,53.56
2022-09-21T02:13:25.385Z,54.73
2022-09-21T02:14:25.319Z,53.13
2022-09-21T02:15:25.384Z,52.78
2022-09-21T02:16:25.348Z,54.06
2022-09-21T02:17:25.344Z,51.57
2022-09-21T02:18:25.299Z,50.53
2022-09-21T02:19:25.330Z,50.05
2022-09-21T02:20:25.301Z,49.09
2022-09-21T02:21:25.309Z,47.17
2022-09-21T02:22:25.317Z,51.72
2022-09-21T02:23:25.266Z,57.20
2022-09-21T02:24:25.362Z,50.95
2022-09-21T02:25:25.289Z,48.72
2022-09-21T02:26:25.253Z,47.08
2022-09-21T02:27:25.238Z,48.64
2022-09-21T02:28:25.687Z,50.62
2022-09-21T02:29:25.274Z,50.45
2022-09-21T02:30:25.305Z,47.97
2022-09-21T02:31:25.235Z,48.12
2022-09-21T02:32:25.198Z,48.33
2022-09-21T02:33:25.193Z,49.76
2022-09-21T02:34:25.854Z,49.22
2022-09-21T02:35:25.171Z,48.70
2022-09-21T02:36:25.214Z,47.39
2022-09-21T02:37:25.190Z,47.46
2022-09-21T02:38:25.202Z,49.91
2022-09-21T02:39:25.155Z,49.66
2022-09-21T02:40:25.392Z,49.11
2022-09-21T02:41:25.151Z,49.03
2022-09-21T02:42:25.184Z,47.81
2022-09-21T02:43:25.118Z,49.55
2022-09-21T02:44:25.124Z,48.06
2022-09-21T02:45:25.150Z,54.04
2022-09-21T02:46:25.149Z,50.42
2022-09-21T02:47:25.108Z,49.34
2022-09-21T02:48:25.172Z,48.19
2022-09-21T02:49:25.101Z,47.17
2022-09-21T02:50:25.082Z,48.26
2022-09-21T02:51:25.128Z,48.41
2022-09-21T02:52:25.140Z,48.15
2022-09-21T02:53:25.062Z,48.58
2022-09-21T02:54:25.051Z,49.08
2022-09-21T02:55:25.062Z,46.15
2022-09-21T02:56:25.066Z,46.69
2022-09-21T02:57:25.407Z,49.68
2022-09-21T02:58:25.032Z,46.85
2022-09-21T02:59:25.069Z,45.97
2022-09-21T03:00:25.083Z,45.81
2022-09-21T03:01:25.066Z,45.48
2022-09-21T03:02:25.039Z,46.81
2022-09-21T03:03:25.507Z,46.15
2022-09-21T03:04:25.094Z,47.51
2022-09-21T03:05:25.433Z,48.06
2022-09-21T03:06:25.051Z,45.43
2022-09-21T03:07:25.013Z,46.68
2022-09-21T03:08:24.995Z,46.92
2022-09-21T03:09:25.673Z,47.86
2022-09-21T03:10:24.978Z,47.57
2022-09-21T03:11:24.979Z,49.78
2022-09-21T03:12:25.053Z,53.57
2022-09-21T03:13:24.999Z,46.73
2022-09-21T03:14:25.030Z,46.18
2022-09-21T03:15:24.932Z,46.07
2022-09-21T03:16:24.971Z,45.59
2022-09-21T03:17:24.967Z,45.53
2022-09-21T03:18:24.922Z,46.35
2022-09-21T03:19:24.882Z,46.02
2022-09-21T03:20:24.928Z,45.82
2022-09-21T03:21:24.965Z,46.08
2022-09-21T03:22:24.868Z,47.37
2022-09-21T03:23:24.859Z,45.60
2022-09-21T03:24:24.883Z,46.79
2022-09-21T03:25:24.844Z,46.16
2022-09-21T03:26:24.888Z,46.63
2022-09-21T03:27:24.859Z,46.39
2022-09-21T03:28:24.865Z,45.86
2022-09-21T03:29:24.846Z,54.26
2022-09-21T03:30:24.833Z,49.78
2022-09-21T03:31:24.953Z,45.77
2022-09-21T03:32:24.843Z,49.99
2022-09-21T03:33:24.828Z,46.99
2022-09-21T03:34:24.812Z,47.05
2022-09-21T03:35:24.814Z,46.22
2022-09-21T03:36:25.234Z,47.88
2022-09-21T03:37:25.211Z,48.24
2022-09-21T03:38:24.793Z,48.45
2022-09-21T03:39:24.755Z,46.64
2022-09-21T03:40:24.774Z,46.75
2022-09-21T03:41:24.780Z,47.11
2022-09-21T03:42:24.729Z,47.13
2022-09-21T03:43:24.922Z,46.76
2022-09-21T03:44:24.727Z,45.88
2022-09-21T03:45:24.806Z,44.71
2022-09-21T03:46:24.816Z,45.09
2022-09-21T03:47:24.722Z,46.12
2022-09-21T03:48:24.739Z,46.28
2022-09-21T03:49:24.741Z,44.98
2022-09-21T03:50:24.708Z,45.91
2022-09-21T03:51:24.717Z,46.32
2022-09-21T03:52:24.715Z,46.00
2022-09-21T03:53:25.344Z,45.80
2022-09-21T03:54:24.728Z,46.02
2022-09-21T03:55:24.652Z,46.30
2022-09-21T03:56:24.732Z,46.34
2022-09-21T03:57:24.632Z,45.28
2022-09-21T03:58:25.469Z,44.68
2022-09-21T03:59:24.627Z,44.43
2022-09-21T04:00:24.615Z,44.88
2022-09-21T04:01:24.679Z,44.70
2022-09-21T04:02:24.678Z,44.36
2022-09-21T04:03:24.616Z,44.50
2022-09-21T04:04:24.707Z,44.41
2022-09-21T04:05:24.607Z,45.40
2022-09-21T04:06:24.660Z,48.36
2022-09-21T04:07:24.572Z,44.97
2022-09-21T04:08:24.570Z,45.00
2022-09-21T04:09:24.574Z,46.12
2022-09-21T04:10:24.623Z,46.01
2022-09-21T04:11:24.541Z,45.28
2022-09-21T04:12:24.675Z,45.91
2022-09-21T04:13:24.592Z,45.41
2022-09-21T04:14:24.534Z,45.37
2022-09-21T04:15:24.574Z,45.96
2022-09-21T04:16:24.524Z,54.17
2022-09-21T04:17:24.608Z,46.27
2022-09-21T04:18:24.495Z,45.89
2022-09-21T04:19:24.508Z,46.16
2022-09-21T04:20:24.534Z,47.18
2022-09-21T04:21:24.501Z,46.30
2022-09-21T04:22:24.972Z,45.70
2022-09-21T04:23:25.108Z,46.05
2022-09-21T04:24:24.490Z,45.73
2022-09-21T04:25:24.546Z,45.04
2022-09-21T04:26:24.520Z,45.09
2022-09-21T04:27:24.483Z,45.58
2022-09-21T04:28:24.785Z,45.53
2022-09-21T04:29:24.469Z,46.34
2022-09-21T04:30:24.419Z,47.86
2022-09-21T04:31:24.471Z,45.48
2022-09-21T04:32:24.432Z,46.27
2022-09-21T04:33:24.404Z,45.97
2022-09-21T04:34:24.435Z,46.22
2022-09-21T04:35:24.439Z,45.89
2022-09-21T04:36:24.517Z,45.79
2022-09-21T04:37:24.409Z,46.23
2022-09-21T04:38:24.385Z,45.64
2022-09-21T04:39:24.458Z,45.41
2022-09-21T04:40:24.394Z,45.40
2022-09-21T04:41:24.361Z,46.09
2022-09-21T04:42:24.384Z,49.25
2022-09-21T04:43:24.367Z,44.47
2022-09-21T04:44:24.371Z,52.23
2022-09-21T04:45:24.352Z,51.83
2022-09-21T04:46:24.362Z,47.13
2022-09-21T04:47:24.372Z,51.06
2022-09-21T04:48:25.176Z,54.96
2022-09-21T04:49:24.357Z,52.24
2022-09-21T04:50:25.008Z,49.76
2022-09-21T04:51:24.301Z,48.43
2022-09-21T04:52:24.368Z,54.74
2022-09-21T04:53:24.309Z,46.01
2022-09-21T04:54:24.270Z,45.51
2022-09-21T04:55:24.331Z,46.49
2022-09-21T04:56:24.319Z,45.22
2022-09-21T04:57:24.262Z,44.98
2022-09-21T04:58:24.677Z,46.37
2022-09-21T04:59:24.297Z,56.71
2022-09-21T05:00:24.304Z,50.73
2022-09-21T05:01:24.283Z,49.63
2022-09-21T05:02:24.228Z,54.10
2022-09-21T05:03:24.256Z,48.11
2022-09-21T05:04:24.214Z,48.99
2022-09-21T05:05:24.215Z,45.97
2022-09-21T05:06:24.569Z,45.90
2022-09-21T05:07:24.189Z,45.81
2022-09-21T05:08:24.183Z,46.01
2022-09-21T05:09:24.207Z,45.52
2022-09-21T05:10:25.287Z,45.52
2022-09-21T05:11:24.177Z,44.72
2022-09-21T05:12:24.196Z,46.44
2022-09-21T05:13:24.157Z,47.81
2022-09-21T05:14:24.142Z,47.26
2022-09-21T05:15:24.285Z,47.12
2022-09-21T05:16:24.166Z,53.99
2022-09-21T05:17:25.266Z,53.76
2022-09-21T05:18:24.107Z,52.41
2022-09-21T05:19:24.165Z,48.61
2022-09-21T05:20:24.129Z,49.69
2022-09-21T05:21:24.094Z,57.35
2022-09-21T05:22:24.091Z,56.99
2022-09-21T05:23:24.086Z,56.12
2022-09-21T05:24:24.070Z,52.13
2022-09-21T05:25:24.147Z,54.20
2022-09-21T05:26:24.065Z,46.93
2022-09-21T05:27:24.080Z,46.19
2022-09-21T05:28:24.051Z,56.46
2022-09-21T05:29:24.075Z,49.47
2022-09-21T05:30:24.029Z,51.70
2022-09-21T05:31:24.256Z,52.50
2022-09-21T05:32:24.029Z,49.39
2022-09-21T05:33:24.046Z,51.42
2022-09-21T05:34:24.092Z,49.10
2022-09-21T05:35:24.036Z,49.45
2022-09-21T05:36:24.007Z,50.95
2022-09-21T05:37:24.585Z,48.30
2022-09-21T05:38:24.004Z,47.97
2022-09-21T05:39:24.613Z,48.01
2022-09-21T05:40:24.418Z,47.82
2022-09-21T05:41:23.980Z,48.33
2022-09-21T05:42:25.237Z,54.50
2022-09-21T05:43:23.937Z,51.33
2022-09-21T05:44:23.944Z,51.36
2022-09-21T05:45:24.165Z,49.55
2022-09-21T05:46:23.992Z,50.02
2022-09-21T05:47:23.943Z,50.43
2022-09-21T05:48:23.992Z,52.76
2022-09-21T05:49:23.902Z,49.33
2022-09-21T05:50:23.980Z,57.29
2022-09-21T05:51:23.892Z,52.31
2022-09-21T05:52:23.906Z,47.12
2022-09-21T05:53:24.412Z,52.03
2022-09-21T05:54:23.938Z,51.12
2022-09-21T05:55:24.519Z,49.53
2022-09-21T05:56:23.910Z,53.55
2022-09-21T05:57:27.344Z,53.68
2022-09-21T05:58:24.910Z,51.96
2022-09-21T05:59:23.855Z,52.85
2022-09-21T06:00:24.385Z,51.56
2022-09-21T06:01:23.896Z,51.29
2022-09-21T06:02:24.310Z,48.35
2022-09-21T06:03:23.860Z,48.33
2022-09-21T06:04:23.807Z,48.84
2022-09-21T06:05:23.840Z,49.39
2022-09-21T06:06:23.797Z,51.05
2022-09-21T06:07:23.832Z,47.72
2022-09-21T06:08:23.800Z,49.05
2022-09-21T06:09:23.787Z,53.41
2022-09-21T06:10:23.789Z,50.74
2022-09-21T06:11:23.767Z,51.76
2022-09-21T06:12:23.749Z,51.43
2022-09-21T06:13:23.836Z,49.34
2022-09-21T06:14:23.785Z,48.80
2022-09-21T06:15:23.733Z,49.10
2022-09-21T06:16:23.769Z,50.17
2022-09-21T06:17:23.772Z,47.51
2022-09-21T06:18:23.724Z,48.31
2022-09-21T06:19:23.709Z,48.60
2022-09-21T06:20:24.676Z,49.44
2022-09-21T06:21:23.711Z,48.17
2022-09-21T06:22:23.772Z,48.54
2022-09-21T06:23:23.703Z,51.49
2022-09-21T06:24:25.006Z,49.44
2022-09-21T06:25:24.674Z,48.30
2022-09-21T06:26:23.671Z,46.84
2022-09-21T06:27:23.698Z,46.70
2022-09-21T06:28:23.672Z,49.45
2022-09-21T06:29:23.816Z,47.58
2022-09-21T06:30:23.722Z,47.18
2022-09-21T06:31:23.658Z,47.11
2022-09-21T06:32:23.632Z,49.12
2022-09-21T06:33:23.666Z,48.93
2022-09-21T06:34:23.646Z,47.43
2022-09-21T06:35:23.610Z,48.39
2022-09-21T06:36:23.664Z,50.79
2022-09-21T06:37:23.609Z,47.64
2022-09-21T06:38:23.605Z,46.88
2022-09-21T06:39:23.580Z,46.51
2022-09-21T06:40:23.637Z,48.90
2022-09-21T06:41:23.578Z,48.99
2022-09-21T06:42:23.578Z,48.68
2022-09-21T06:43:23.557Z,52.83
2022-09-21T06:44:23.593Z,48.51
2022-09-21T06:45:23.580Z,51.09
2022-09-21T06:46:23.555Z,49.49
2022-09-21T06:47:23.546Z,52.59
2022-09-21T06:48:23.538Z,54.56
2022-09-21T06:49:23.574Z,50.85
2022-09-21T06:50:23.523Z,54.67
2022-09-21T06:51:23.509Z,50.65
2022-09-21T06:52:23.531Z,49.05
2022-09-21T06:53:23.571Z,48.15
2022-09-21T06:54:23.498Z,51.59
2022-09-21T06:55:23.477Z,47.96
2022-09-21T06:56:23.486Z,52.48
2022-09-21T06:57:23.464Z,49.53
2022-09-21T06:58:23.463Z,45.58
2022-09-21T06:59:23.452Z,45.36
2022-09-21T07:00:24.205Z,44.91
2022-09-21T07:01:23.622Z,46.55
2022-09-21T07:02:23.436Z,44.98
2022-09-21T07:03:23.463Z,44.94
2022-09-21T07:04:25.264Z,46.11
2022-09-21T07:05:23.460Z,52.93
2022-09-21T07:06:24.991Z,49.96
2022-09-21T07:07:23.434Z,47.45
2022-09-21T07:10:24.387Z,45.30
2022-09-21T07:11:23.859Z,44.50
2022-09-21T07:12:23.378Z,44.13
2022-09-21T07:13:23.361Z,44.45
2022-09-21T07:14:23.353Z,45.13
2022-09-21T07:15:23.402Z,43.93
2022-09-21T07:16:23.472Z,42.94
2022-09-21T07:17:23.360Z,44.56
2022-09-21T07:18:23.340Z,44.79
2022-09-21T07:19:23.750Z,45.06
2022-09-21T07:20:23.335Z,45.99
2022-09-21T07:21:23.304Z,44.84
2022-09-21T07:22:23.629Z,53.51
2022-09-21T07:23:23.297Z,50.84
2022-09-21T07:24:23.322Z,44.11
2022-09-21T07:25:23.301Z,44.36
2022-09-21T07:26:23.277Z,44.08
2022-09-21T07:27:23.278Z,44.65
2022-09-21T07:28:23.278Z,43.56
2022-09-21T07:29:23.293Z,43.18
2022-09-21T07:30:23.296Z,51.68
2022-09-21T07:31:23.287Z,44.39
2022-09-21T07:32:24.226Z,43.56
2022-09-21T07:33:23.259Z,44.25
2022-09-21T07:34:23.236Z,46.73
2022-09-21T07:35:23.209Z,44.42
2022-09-21T07:36:23.222Z,48.16
2022-09-21T07:37:23.205Z,45.22
2022-09-21T07:38:23.193Z,45.97
2022-09-21T07:39:23.614Z,46.83
2022-09-21T07:40:25.306Z,49.10
2022-09-21T07:41:23.172Z,51.06
2022-09-21T07:42:23.162Z,47.52
2022-09-21T07:43:23.187Z,45.26
2022-09-21T07:44:23.150Z,48.03
2022-09-21T07:45:23.246Z,51.62
2022-09-21T07:46:23.134Z,49.64
2022-09-21T07:47:23.137Z,48.29
2022-09-21T07:48:23.123Z,45.61
2022-09-21T07:49:23.223Z,56.71
2022-09-21T07:50:23.128Z,59.06
2022-09-21T07:51:24.369Z,54.54
2022-09-21T07:52:23.579Z,55.94
2022-09-21T07:53:23.084Z,56.26
2022-09-21T07:54:23.082Z,54.52
2022-09-21T07:55:23.098Z,53.12
2022-09-21T07:56:23.131Z,51.56
2022-09-21T07:57:23.069Z,45.90
2022-09-21T07:58:24.245Z,45.17
2022-09-21T07:59:23.086Z,45.64
2022-09-21T08:00:23.149Z,51.99
2022-09-21T08:01:23.157Z,47.69
2022-09-21T08:02:23.054Z,43.39
2022-09-21T08:03:23.038Z,49.64
2022-09-21T08:04:23.033Z,51.29
2022-09-21T08:05:23.038Z,49.02
2022-09-21T08:06:23.040Z,50.35
2022-09-21T08:07:23.046Z,44.97
2022-09-21T08:08:22.987Z,46.14
2022-09-21T08:09:23.001Z,46.78
2022-09-21T08:10:23.082Z,43.59
2022-09-21T08:11:23.402Z,44.44
2022-09-21T08:12:23.002Z,49.30
2022-09-21T08:13:22.982Z,51.53
2022-09-21T08:14:26.337Z,54.93
2022-09-21T08:15:46.977Z,52.40
2022-09-21T08:16:24.075Z,53.11
2022-09-21T08:17:22.924Z,47.04
2022-09-21T08:18:22.934Z,44.81
2022-09-21T08:19:22.910Z,46.59
2022-09-21T08:20:23.111Z,47.43
2022-09-21T08:21:22.988Z,52.94
2022-09-21T08:22:22.901Z,51.38
2022-09-21T08:23:22.874Z,49.30
2022-09-21T08:24:22.875Z,46.48
2022-09-21T08:25:22.870Z,45.28
2022-09-21T08:26:22.864Z,45.17
2022-09-21T08:27:25.201Z,44.39
2022-09-21T08:28:22.839Z,44.99
2022-09-21T08:29:23.565Z,46.76
2022-09-21T08:30:22.913Z,43.46
2022-09-21T08:31:22.924Z,44.08
2022-09-21T08:32:39.724Z,47.41
2022-09-21T08:33:27.269Z,46.22
2022-09-21T08:34:24.250Z,44.30
2022-09-21T08:35:23.260Z,43.78
2022-09-21T08:36:22.824Z,43.75
2022-09-21T08:37:22.820Z,45.78
2022-09-21T08:38:22.774Z,47.89
2022-09-21T08:39:22.785Z,45.55
2022-09-21T08:40:22.897Z,47.29
2022-09-21T08:41:23.221Z,48.94
2022-09-21T08:42:22.751Z,47.86
2022-09-21T08:43:22.751Z,58.69
2022-09-21T08:44:23.486Z,49.38
2022-09-21T08:45:22.730Z,45.02
2022-09-21T08:46:22.795Z,46.95
2022-09-21T08:47:22.719Z,57.07
2022-09-21T08:48:27.409Z,48.33
2022-09-21T08:49:23.710Z,46.71
2022-09-21T08:50:22.768Z,47.14
2022-09-21T08:51:23.681Z,47.30
2022-09-21T08:52:22.682Z,52.50
2022-09-21T08:53:22.744Z,55.95
2022-09-21T08:54:22.661Z,49.24
2022-09-21T08:55:22.662Z,54.02
2022-09-21T08:56:22.653Z,46.47
2022-09-21T08:57:22.736Z,46.30
2022-09-21T08:58:22.637Z,45.67
2022-09-21T08:59:22.633Z,44.80
2022-09-21T09:00:22.704Z,45.21
2022-09-21T09:01:22.791Z,43.79
2022-09-21T09:02:22.740Z,41.94
2022-09-21T09:03:23.092Z,42.03
2022-09-21T09:04:22.597Z,43.73
2022-09-21T09:05:22.597Z,42.53
2022-09-21T09:06:26.668Z,45.03
2022-09-21T09:07:22.597Z,43.43
2022-09-21T09:08:22.565Z,46.37
2022-09-21T09:09:23.205Z,46.68
2022-09-21T09:10:22.655Z,44.63
2022-09-21T09:11:22.557Z,46.13
2022-09-21T09:12:22.540Z,45.48
2022-09-21T09:13:22.556Z,44.63
2022-09-21T09:14:22.532Z,46.30
2022-09-21T09:15:22.522Z,44.02
2022-09-21T09:16:22.628Z,47.14
2022-09-21T09:17:22.523Z,45.62
2022-09-21T09:18:23.242Z,47.64
2022-09-21T09:19:22.498Z,45.95
2022-09-21T09:20:22.630Z,43.33
2022-09-21T09:21:30.377Z,47.26
2022-09-21T09:22:23.478Z,54.89
2022-09-21T09:23:22.495Z,49.71
2022-09-21T09:24:23.737Z,48.68
2022-09-21T09:25:22.500Z,45.42
2022-09-21T09:26:22.473Z,43.04
2022-09-21T09:27:22.449Z,46.17
2022-09-21T09:28:22.436Z,44.32
2022-09-21T09:29:22.454Z,49.24
2022-09-21T09:30:22.513Z,53.09
2022-09-21T09:31:22.512Z,45.97
2022-09-21T09:32:22.412Z,49.06
2022-09-21T09:33:22.860Z,47.66
2022-09-21T09:34:22.394Z,47.84
2022-09-21T09:35:22.406Z,46.95
2022-09-21T09:36:40.255Z,46.91
2022-09-21T09:37:23.412Z,49.70
2022-09-21T09:38:22.427Z,46.60
2022-09-21T09:39:22.361Z,45.51
2022-09-21T09:40:22.460Z,45.17
2022-09-21T09:41:22.374Z,43.64
2022-09-21T09:42:22.331Z,43.91
2022-09-21T09:43:22.740Z,46.76
2022-09-21T09:44:22.390Z,45.43
2022-09-21T09:45:25.179Z,47.36
2022-09-21T09:46:22.351Z,48.94
2022-09-21T09:47:22.303Z,55.10
2022-09-21T09:48:22.288Z,48.30
2022-09-21T09:49:22.309Z,45.08
2022-09-21T09:50:22.344Z,45.39
2022-09-21T09:51:23.289Z,43.26
2022-09-21T09:52:22.265Z,47.04
2022-09-21T09:53:22.288Z,52.36
2022-09-21T09:54:22.241Z,48.07
2022-09-21T09:55:22.240Z,44.34
2022-09-21T09:56:22.238Z,46.02
2022-09-21T09:57:22.259Z,45.29
2022-09-21T09:58:22.660Z,45.85
2022-09-21T09:59:22.216Z,52.46
2022-09-21T10:00:22.265Z,49.52
2022-09-21T10:01:22.716Z,48.60
2022-09-21T10:02:22.191Z,48.14
2022-09-21T10:03:22.197Z,56.43
2022-09-21T10:04:22.211Z,61.10
2022-09-21T10:05:22.183Z,50.55
2022-09-21T10:06:22.157Z,46.40
2022-09-21T10:07:23.164Z,46.59
2022-09-21T10:08:22.144Z,47.26
2022-09-21T10:09:22.144Z,46.85
2022-09-21T10:10:22.299Z,47.45
2022-09-21T10:11:22.123Z,45.62
2022-09-21T10:12:22.137Z,48.99
2022-09-21T10:13:22.164Z,46.76
2022-09-21T10:14:22.801Z,47.76
2022-09-21T10:15:22.143Z,46.79
2022-09-21T10:16:22.250Z,48.15
2022-09-21T10:17:22.086Z,48.67
2022-09-21T10:18:22.081Z,47.73
2022-09-21T10:19:22.656Z,52.00
2022-09-21T10:20:22.160Z,45.58
2022-09-21T10:21:22.108Z,44.68
2022-09-21T10:22:22.052Z,46.46
2022-09-21T10:23:22.073Z,58.73
2022-09-21T10:24:22.073Z,49.16
2022-09-21T10:25:22.040Z,48.78
2022-09-21T10:26:22.455Z,45.26
2022-09-21T10:27:22.019Z,44.74
2022-09-21T10:28:22.049Z,42.36
2022-09-21T10:29:22.095Z,44.84
2022-09-21T10:30:22.039Z,40.83
2022-09-21T10:31:22.029Z,42.27
2022-09-21T10:32:22.687Z,44.55
2022-09-21T10:33:21.976Z,49.74
2022-09-21T10:34:21.960Z,50.32
2022-09-21T10:35:21.982Z,49.80
2022-09-21T10:36:21.952Z,48.85
2022-09-21T10:37:21.988Z,44.53
2022-09-21T10:38:22.845Z,43.19
2022-09-21T10:39:22.384Z,43.24
2022-09-21T10:40:22.080Z,42.97
2022-09-21T10:41:22.007Z,52.59
2022-09-21T10:42:22.362Z,50.00
2022-09-21T10:43:21.905Z,43.36
2022-09-21T10:44:21.887Z,43.11
2022-09-21T10:45:21.915Z,46.93
2022-09-21T10:46:21.945Z,45.16
2022-09-21T10:47:23.175Z,51.19
2022-09-21T10:48:21.875Z,47.83
2022-09-21T10:49:21.864Z,44.29
2022-09-21T10:50:21.865Z,43.45
2022-09-21T10:51:21.859Z,43.32
2022-09-21T10:52:21.871Z,42.45
2022-09-21T10:53:22.170Z,42.46
2022-09-21T10:54:21.826Z,43.28
2022-09-21T10:55:21.815Z,44.71
2022-09-21T10:56:21.820Z,42.33
2022-09-21T10:57:21.811Z,43.18
2022-09-21T10:58:21.948Z,42.65
2022-09-21T10:59:21.840Z,51.70
2022-09-21T11:00:21.794Z,53.51
2022-09-21T11:01:22.013Z,41.95
2022-09-21T11:02:21.863Z,40.08
2022-09-21T11:03:21.769Z,40.90
2022-09-21T11:04:21.798Z,40.98
2022-09-21T11:05:21.762Z,43.07
2022-09-21T11:06:21.742Z,40.73
2022-09-21T11:07:21.731Z,41.19
2022-09-21T11:08:21.783Z,43.12
2022-09-21T11:09:22.175Z,40.90
2022-09-21T11:10:21.707Z,41.93
2022-09-21T11:11:21.708Z,41.16
2022-09-21T11:12:21.700Z,45.14
2022-09-21T11:13:21.695Z,44.20
2022-09-21T11:14:21.688Z,45.93
2022-09-21T11:15:21.692Z,42.09
2022-09-21T11:16:21.805Z,41.30
2022-09-21T11:17:21.698Z,41.33
2022-09-21T11:18:22.499Z,41.52
2022-09-21T11:19:21.651Z,41.92
2022-09-21T11:20:21.644Z,51.26
2022-09-21T11:21:21.645Z,43.17
2022-09-21T11:22:21.638Z,41.64
2022-09-21T11:23:21.631Z,42.34
2022-09-21T11:24:22.256Z,40.18
2022-09-21T11:25:21.615Z,42.90
2022-09-21T11:26:21.608Z,40.83
2022-09-21T11:27:21.593Z,40.70
2022-09-21T11:28:21.638Z,46.10
2022-09-21T11:29:22.277Z,44.40
2022-09-21T11:30:21.572Z,41.09
2022-09-21T11:31:21.750Z,40.25
2022-09-21T11:32:21.585Z,47.10
2022-09-21T11:33:21.629Z,42.60
2022-09-21T11:34:21.573Z,44.93
2022-09-21T11:35:21.537Z,48.20
2022-09-21T11:36:21.532Z,41.16
2022-09-21T11:37:21.523Z,40.95
2022-09-21T11:38:21.525Z,41.26
2022-09-21T11:39:21.510Z,41.65
2022-09-21T11:40:21.754Z,43.82
2022-09-21T11:41:21.507Z,41.47
2022-09-21T11:42:21.489Z,43.72
2022-09-21T11:43:23.511Z,46.36
2022-09-21T11:44:21.468Z,45.59
2022-09-21T11:45:21.470Z,45.12
2022-09-21T11:46:21.937Z,42.87
2022-09-21T11:47:21.458Z,41.66
2022-09-21T11:48:21.445Z,51.36
2022-09-21T11:49:21.456Z,51.34
2022-09-21T11:50:36.364Z,52.85
2022-09-21T11:51:22.432Z,54.47
2022-09-21T11:52:21.553Z,54.55
2022-09-21T11:53:21.413Z,57.66
2022-09-21T11:54:21.409Z,53.01
2022-09-21T11:55:21.423Z,48.33
2022-09-21T11:56:21.433Z,46.87
2022-09-21T11:57:22.177Z,40.48
2022-09-21T11:58:21.360Z,42.35
2022-09-21T11:59:21.378Z,47.38
2022-09-21T12:00:21.363Z,50.47
2022-09-21T12:01:21.367Z,50.38
2022-09-21T12:02:21.527Z,42.87
2022-09-21T12:03:21.332Z,41.01
2022-09-21T12:04:21.391Z,41.03
2022-09-21T12:05:21.350Z,45.72
2022-09-21T12:06:21.796Z,48.71
2022-09-21T12:07:21.318Z,40.69
2022-09-21T12:08:21.301Z,41.84
2022-09-21T12:09:21.306Z,41.32
2022-09-21T12:10:21.331Z,41.75
2022-09-21T12:11:21.307Z,41.21
2022-09-21T12:12:22.026Z,39.25
2022-09-21T12:13:21.280Z,39.96
2022-09-21T12:14:21.263Z,43.90
2022-09-21T12:15:21.252Z,41.96
2022-09-21T12:16:21.287Z,42.09
2022-09-21T12:17:21.812Z,40.66
2022-09-21T12:18:21.250Z,47.68
2022-09-21T12:19:21.231Z,45.62
2022-09-21T12:20:21.221Z,51.19
2022-09-21T12:21:21.249Z,52.50
2022-09-21T12:22:21.210Z,54.56
2022-09-21T12:23:21.208Z,53.29
2022-09-21T12:24:21.192Z,51.67
2022-09-21T12:25:21.187Z,48.74
2022-09-21T12:26:21.181Z,49.92
2022-09-21T12:27:21.231Z,51.24
2022-09-21T12:28:21.168Z,48.43
2022-09-21T12:29:21.167Z,49.69
2022-09-21T12:30:21.153Z,49.31
2022-09-21T12:31:21.204Z,49.24
2022-09-21T12:32:21.614Z,49.66
2022-09-21T12:33:21.767Z,45.94
2022-09-21T12:34:21.140Z,47.12
2022-09-21T12:35:21.127Z,46.53
2022-09-21T12:36:21.128Z,46.15
2022-09-21T12:37:21.149Z,46.71
2022-09-21T12:38:21.262Z,46.20
2022-09-21T12:39:21.951Z,44.53
2022-09-21T12:40:21.147Z,44.81
2022-09-21T12:41:21.084Z,45.86
2022-09-21T12:42:21.082Z,55.15
2022-09-21T12:43:21.075Z,47.48
2022-09-21T12:44:21.787Z,45.41
2022-09-21T12:45:21.076Z,46.89
2022-09-21T12:46:21.106Z,45.92
2022-09-21T12:47:21.053Z,45.88
2022-09-21T12:48:21.044Z,43.85
2022-09-21T12:49:21.029Z,44.71
2022-09-21T12:50:21.264Z,44.79
2022-09-21T12:51:21.026Z,45.77
2022-09-21T12:52:21.047Z,45.98
2022-09-21T12:53:21.036Z,49.06
2022-09-21T12:54:21.007Z,44.88